Ride Results

Murrumba Magic (02-08-2009)
Ride distance: 100.0 km

Outcomes - Murrumba Magic (02-08-2009)
Division No. of Entries Retired / DNE Completed Withdrawn Ineligible V/O Percentage Completed
HW 5 - 2 1 - 2 40.00%
MW 20 - 13 2 1 4 65.00%
LW 14 - 8 - 1 5 57.14%
JN 12 - 5 - - 7 41.67%
Totals 51 - 28 3 2 18 54.90%
Results - Murrumba Magic (02-08-2009)
No. Rider Horse Place Time Leg Speeds Total
Km/Hr
H/R bpm
Heavyweight
57 Jan Rohweder Charlie Chaplin 1 7:09:00 15.3, 12.8, 13.6 13.99 35, 42, 43, 43 (Avg:42)
76 Rod Strahan Shardell Prince Valiant 1 (BC) 7:09:00 14.8, 13.3, 13.6 13.99 37, 42, 46, 44 (Avg:44)
11 Jacqui Emery Dunwingeri Maashhar Lame L2 0:00:00 13.1, 10.3 - 33, 42, 49 (Avg:45)
5 Eva Levacsics Al Tivo Metabolics non-invasive L2 0:00:00 9.9, 8.8 - 28, 35, 50 (Avg:42)
66 Selwyn Nix Shaydeetree Baci Withdrawn L2 0:00:00 - - 35, 55, 57 (Avg:56)
Middleweight
52 Sasha Laws-King Bint Shah Dara 1 (BC) 5:10:00 19.1, 17.5, 22.5 19.35 38, 45, 48, 47 (Avg:46)
65 Stephen Gray Kasbah Kid 2 5:18:00 19.3, 17.3, 20.2 18.87 38, 51, 51, 56 (Avg:52)
71 Simone Krahnen Ardai 3 5:43:00 17.9, 15.3, 20.2 17.49 35, 49, 48, 50 (Avg:49)
60 Craig Ellison Lenny 4 6:58:00 19.3, 19.8, 8.3 14.35 32, 43, 52, 48 (Avg:47)
72 Jennifer Annetts Churinga Goldfire 5 6:59:00 15.3, 12.3, 15.7 14.32 35, 44, 53, 52 (Avg:49)
81 Adrian Brickley Duray Chime The Bells 5 6:59:00 15.3, 12.3, 15.7 14.32 43, 43, 52, 50 (Avg:48)
54 Caroline Fitzgerald Lanamere Nightmusic 7 7:15:00 17.1, 11.7, 12.8 13.79 33, 42, 45, 47 (Avg:44)
67 Derryn Nix Rowallan Rufous 8 7:38:00 14.3, 11.3, 13.9 13.10 40, 40, 46, 52 (Avg:46)
9 Derek Armitage Al Shifa Kasaba 9 7:49:00 13.3, 11.8, 13.2 12.79 35, 40, 45, 45 (Avg:43)
83 Raewyn Carter Maioro Nakita 10 8:34:00 13.4, 10.2, 11.4 11.67 36, 41, 46, 49 (Avg:45)
84 Errol Watt Maioro Fire 10 8:34:00 13.4, 8.8, 14.5 11.67 34, 40, 45, 42 (Avg:42)
77 Ken Moir Far Q Desmond 12 8:40:00 13.1, 10.3, 11.1 11.54 39, 49, 53, 51 (Avg:51)
82 Olga Bartlett Cingala Royalle 13 9:31:00 10.2, 9.9, 11.8 10.51 44, 40, 42, 45 (Avg:42)
17 Gerard Bou Splendacrest Superb Lame L3 0:00:00 13.1, 11.9, 13.2 - 36, 45, 50, 50 (Avg:48)
7 Ben Caslick Ned Kelly te Lame L3 0:00:00 11.7, 11.0, 11.8 - 43, 49, 52, 57 (Avg:52)
6 Debbie Edwards Agape Evezra Out of Time L3 0:00:00 9.9, 9.9, 7.4 - 32, 35, 45, 41 (Avg:40)
8 Natalie McIntyre Barkala Envoy Lame L3 0:00:00 13.1, 7.9, 10.3 - 33, 39, 45, 56 (Avg:46)
2 Angela Waldock Anzaq Lame L3 0:00:00 13.1, 11.5, 12.4 - 33, 38, 42, 45 (Avg:41)
12 Angela Head Chaswyk Ramazzotti Withdrawn L2 0:00:00 - - 28, 34, 37 (Avg:35)
13 Samantha Yates Chaswyck The Maverick Withdrawn L1 0:00:00 - - 45, 41 (Avg:41)
Lightweight
51 Angela Hawks Crysari 1 (BC) 5:10:00 18.8, 17.8, 22.5 19.35 34, 47, 49, 50 (Avg:48)
78 Vicki Gaillard Trazir Mystic Shai 2 6:17:00 17.0, 13.7, 17.6 15.92 33, 42, 43, 45 (Avg:43)
62 Rachel Kuns Kelkette Park Finesse 3 6:38:00 17.6, 12.7, 15.1 15.08 33, 41, 45, 45 (Avg:43)
61 Bec Miller Hirstglen Conquistador 4 6:58:00 14.9, 13.8, 14.0 14.35 36, 44, 48, 43 (Avg:45)
55 Jan Tyrrell Willandra Wind Lancer 5 7:15:00 17.1, 11.7, 12.8 13.79 35, 43, 49, 47 (Avg:46)
58 Margaret Harvey Banbra Tamara 6 7:43:00 14.7, 11.1, 13.1 12.96 24, 32, 41, 40 (Avg:37)
73 Karen Trundell Rodborough Eclipse 6 7:43:00 14.8, 11.1, 13.0 12.96 36, 38, 42, 42 (Avg:40)
3 Patrice Fenech Indiana Allias 8 8:04:00 13.1, 11.5, 12.4 12.40 46, 46, 45, 42 (Avg:44)
80 Renae Kuhn Splitters Creek Bundy Disqualified L2 0:00:00 19.1, 14.4 - 36, 44, 46 (Avg:45)
14 Clio Rauch Splendacrest Zafire Lame L2 0:00:00 12.5, 9.7 - 28, 36, 45 (Avg:40)
15 Lisa Sanchez Lisana Con Man Lame L2 0:00:00 13.3, 7.9 - 32, 41, 49 (Avg:45)
74 Judy Battams Nangamba Alisaar Lame L1 0:00:00 19.1 - 37, 45 (Avg:45)
10 Yvonne Hain Milgarra Sinzano Lame L1 0:00:00 10.2 - 35, 47 (Avg:47)
64 Emma Masters Die Kinder Lunar Eclipse Lame L1 0:00:00 18.0 - 42, 46 (Avg:46)
Junior
69 Connor Krahnen Kalkadoon Shalom 1 5:43:00 17.9, 15.3, 20.2 17.49 35, 43, 47, 50 (Avg:46)
63 Jade Vergis Meltharina Maralyc 1 (BC) 5:43:00 17.9, 15.3, 20.2 17.49 32, 42, 39, 44 (Avg:41)
79 Tarnia Kittel Belgari Bentley 3 5:49:00 18.0, 15.3, 18.6 17.19 40, 49, 49, 51 (Avg:49)
59 Dylan Keys Elfar Sword O'Fire 4 7:31:00 14.8, 12.1, 12.8 13.30 32, 38, 42, 44 (Avg:41)
16 David Anderson Jnr Woodbourne Cloud 5 9:45:00 9.9, 9.9, 11.0 10.26 40, 45, 50, 60 (Avg:51)
70 Erin Krahnen Shaqeil Lame L3 0:00:00 17.9, 15.3, 20.2 - 32, 42, 44, 42 (Avg:42)
75 Ingrid Ambrosiussen CD Jimmy P Lame L2 0:00:00 14.7, 9.9 - 32, 50, 50 (Avg:50)
1 Jamie Green Abbeywood Romeo Lame L2 0:00:00 13.1, 35.3 - 33, 44, 43 (Avg:43)
68 Colleen Krahnen Kalkadoon Viva Lame L2 0:00:00 17.9, 15.3 - 32, 40, 39 (Avg:39)
4 Lisa Stoffel Rotan Dolly Girl Lame L2 0:00:00 12.1, 9.9 - 28, 39, 47 (Avg:43)
53 Amaya Thomas Kilkivan Msalute Lame L2 0:00:00 13.1, 11.5 - 36, 42, 47 (Avg:44)
56 Wade Burgess Rayjen Boaz Lame L1 0:00:00 12.1 - 24, 42 (Avg:42)